sensor_id;sensor_type;location;lat;lon;timestamp;temperature;humidity
27544;DHT22;17996;51.056;3.656;2024-03-22T00:01:56;13.70;99.90
27544;DHT22;17996;51.056;3.656;2024-03-22T00:04:22;13.70;99.90
27544;DHT22;17996;51.056;3.656;2024-03-22T00:06:49;13.60;99.90
27544;DHT22;17996;51.056;3.656;2024-03-22T00:09:17;13.60;99.90
27544;DHT22;17996;51.056;3.656;2024-03-22T00:11:44;13.60;99.90
27544;DHT22;17996;51.056;3.656;2024-03-22T00:14:11;13.60;99.90
27544;DHT22;17996;51.056;3.656;2024-03-22T00:16:39;13.60;99.90
27544;DHT22;17996;51.056;3.656;2024-03-22T00:19:06;13.60;99.90
27544;DHT22;17996;51.056;3.656;2024-03-22T00:21:32;13.50;99.90
27544;DHT22;17996;51.056;3.656;2024-03-22T00:23:58;13.50;99.90
27544;DHT22;17996;51.056;3.656;2024-03-22T00:26:27;13.60;99.90
27544;DHT22;17996;51.056;3.656;2024-03-22T00:28:53;13.60;99.90
27544;DHT22;17996;51.056;3.656;2024-03-22T00:31:21;13.60;99.90
27544;DHT22;17996;51.056;3.656;2024-03-22T00:33:47;13.60;99.90
27544;DHT22;17996;51.056;3.656;2024-03-22T00:36:13;13.50;99.90
27544;DHT22;17996;51.056;3.656;2024-03-22T00:38:39;13.50;99.90
27544;DHT22;17996;51.056;3.656;2024-03-22T00:41:07;13.50;99.90
27544;DHT22;17996;51.056;3.656;2024-03-22T00:43:33;13.50;99.90
27544;DHT22;17996;51.056;3.656;2024-03-22T00:45:59;13.50;99.90
27544;DHT22;17996;51.056;3.656;2024-03-22T00:48:26;13.40;99.90
27544;DHT22;17996;51.056;3.656;2024-03-22T00:50:55;13.40;99.90
27544;DHT22;17996;51.056;3.656;2024-03-22T00:53:21;13.40;99.90
27544;DHT22;17996;51.056;3.656;2024-03-22T00:55:47;13.30;99.90
27544;DHT22;17996;51.056;3.656;2024-03-22T00:58:20;13.30;99.90
27544;DHT22;17996;51.056;3.656;2024-03-22T01:00:46;13.30;99.90
27544;DHT22;17996;51.056;3.656;2024-03-22T01:03:12;13.20;99.90
27544;DHT22;17996;51.056;3.656;2024-03-22T01:05:38;13.20;99.90
27544;DHT22;17996;51.056;3.656;2024-03-22T01:08:07;13.20;99.90
27544;DHT22;17996;51.056;3.656;2024-03-22T01:10:33;13.20;99.90
27544;DHT22;17996;51.056;3.656;2024-03-22T01:13:00;13.10;99.90
27544;DHT22;17996;51.056;3.656;2024-03-22T01:15:28;13.20;99.90
27544;DHT22;17996;51.056;3.656;2024-03-22T01:17:53;13.20;99.90
27544;DHT22;17996;51.056;3.656;2024-03-22T01:20:19;13.20;99.90
27544;DHT22;17996;51.056;3.656;2024-03-22T01:22:45;13.20;99.90
27544;DHT22;17996;51.056;3.656;2024-03-22T01:25:11;13.10;99.90
27544;DHT22;17996;51.056;3.656;2024-03-22T01:27:37;13.10;99.90
27544;DHT22;17996;51.056;3.656;2024-03-22T01:30:03;13.10;99.90
27544;DHT22;17996;51.056;3.656;2024-03-22T01:32:30;13.10;99.90
27544;DHT22;17996;51.056;3.656;2024-03-22T01:34:57;13.10;99.90
27544;DHT22;17996;51.056;3.656;2024-03-22T01:37:23;13.10;99.90
27544;DHT22;17996;51.056;3.656;2024-03-22T01:39:49;13.10;99.90
27544;DHT22;17996;51.056;3.656;2024-03-22T01:42:14;13.10;99.90
27544;DHT22;17996;51.056;3.656;2024-03-22T01:44:41;13.10;99.90
27544;DHT22;17996;51.056;3.656;2024-03-22T01:47:07;13.10;99.90
27544;DHT22;17996;51.056;3.656;2024-03-22T01:49:35;13.00;99.90
27544;DHT22;17996;51.056;3.656;2024-03-22T01:52:01;13.00;99.90
27544;DHT22;17996;51.056;3.656;2024-03-22T01:54:30;13.00;99.90
27544;DHT22;17996;51.056;3.656;2024-03-22T01:56:58;13.00;99.90
27544;DHT22;17996;51.056;3.656;2024-03-22T01:59:26;13.00;99.90
27544;DHT22;17996;51.056;3.656;2024-03-22T02:01:54;13.00;99.90
27544;DHT22;17996;51.056;3.656;2024-03-22T02:04:21;13.00;99.90
27544;DHT22;17996;51.056;3.656;2024-03-22T02:06:47;13.00;99.90
27544;DHT22;17996;51.056;3.656;2024-03-22T02:09:12;13.00;99.90
27544;DHT22;17996;51.056;3.656;2024-03-22T02:11:39;13.00;99.90
27544;DHT22;17996;51.056;3.656;2024-03-22T02:14:05;13.00;99.90
27544;DHT22;17996;51.056;3.656;2024-03-22T02:16:30;13.00;99.90
27544;DHT22;17996;51.056;3.656;2024-03-22T02:18:56;13.00;99.90
27544;DHT22;17996;51.056;3.656;2024-03-22T02:21:22;13.00;99.90
27544;DHT22;17996;51.056;3.656;2024-03-22T02:23:49;13.00;99.90
27544;DHT22;17996;51.056;3.656;2024-03-22T02:26:15;13.00;99.90
27544;DHT22;17996;51.056;3.656;2024-03-22T02:28:40;13.00;99.90
27544;DHT22;17996;51.056;3.656;2024-03-22T02:31:06;13.00;99.90
27544;DHT22;17996;51.056;3.656;2024-03-22T02:33:33;12.90;99.90
27544;DHT22;17996;51.056;3.656;2024-03-22T02:36:00;12.90;99.90
27544;DHT22;17996;51.056;3.656;2024-03-22T02:38:27;12.90;99.90
27544;DHT22;17996;51.056;3.656;2024-03-22T02:40:53;12.90;99.90
27544;DHT22;17996;51.056;3.656;2024-03-22T02:43:20;12.90;99.90
27544;DHT22;17996;51.056;3.656;2024-03-22T02:45:49;12.90;99.90
27544;DHT22;17996;51.056;3.656;2024-03-22T02:48:15;12.90;99.90
27544;DHT22;17996;51.056;3.656;2024-03-22T02:50:41;12.90;99.90
27544;DHT22;17996;51.056;3.656;2024-03-22T02:53:07;12.90;99.90
27544;DHT22;17996;51.056;3.656;2024-03-22T02:55:40;12.90;99.90
27544;DHT22;17996;51.056;3.656;2024-03-22T02:58:07;12.90;99.90
27544;DHT22;17996;51.056;3.656;2024-03-22T03:00:39;12.80;99.90
27544;DHT22;17996;51.056;3.656;2024-03-22T03:03:05;12.80;99.90
27544;DHT22;17996;51.056;3.656;2024-03-22T03:05:34;12.80;99.90
27544;DHT22;17996;51.056;3.656;2024-03-22T03:08:03;12.80;99.90
27544;DHT22;17996;51.056;3.656;2024-03-22T03:10:29;12.80;99.90
27544;DHT22;17996;51.056;3.656;2024-03-22T03:12:55;12.80;99.90
27544;DHT22;17996;51.056;3.656;2024-03-22T03:15:22;12.80;99.90
27544;DHT22;17996;51.056;3.656;2024-03-22T03:17:47;12.80;99.90
27544;DHT22;17996;51.056;3.656;2024-03-22T03:20:13;12.80;99.90
27544;DHT22;17996;51.056;3.656;2024-03-22T03:22:40;12.80;99.90
27544;DHT22;17996;51.056;3.656;2024-03-22T03:25:12;12.80;99.90
27544;DHT22;17996;51.056;3.656;2024-03-22T03:27:39;12.80;99.90
27544;DHT22;17996;51.056;3.656;2024-03-22T03:30:05;12.80;99.90
27544;DHT22;17996;51.056;3.656;2024-03-22T03:32:35;12.80;99.90
27544;DHT22;17996;51.056;3.656;2024-03-22T03:35:01;12.80;99.90
27544;DHT22;17996;51.056;3.656;2024-03-22T03:37:28;12.80;99.90
27544;DHT22;17996;51.056;3.656;2024-03-22T03:39:54;12.80;99.90
27544;DHT22;17996;51.056;3.656;2024-03-22T03:42:19;12.80;99.90
27544;DHT22;17996;51.056;3.656;2024-03-22T03:44:48;12.80;99.90
27544;DHT22;17996;51.056;3.656;2024-03-22T03:47:14;12.80;99.90
27544;DHT22;17996;51.056;3.656;2024-03-22T03:49:45;12.80;99.90
27544;DHT22;17996;51.056;3.656;2024-03-22T03:52:11;12.80;99.90
27544;DHT22;17996;51.056;3.656;2024-03-22T03:54:37;12.80;99.90
27544;DHT22;17996;51.056;3.656;2024-03-22T03:57:03;12.80;99.90
27544;DHT22;17996;51.056;3.656;2024-03-22T03:59:29;12.80;99.90
27544;DHT22;17996;51.056;3.656;2024-03-22T04:01:55;12.80;99.90
27544;DHT22;17996;51.056;3.656;2024-03-22T04:04:22;12.80;99.90
27544;DHT22;17996;51.056;3.656;2024-03-22T04:06:48;12.80;99.90
27544;DHT22;17996;51.056;3.656;2024-03-22T04:09:13;12.80;99.90
27544;DHT22;17996;51.056;3.656;2024-03-22T04:11:39;12.80;99.90
27544;DHT22;17996;51.056;3.656;2024-03-22T04:14:05;12.80;99.90
27544;DHT22;17996;51.056;3.656;2024-03-22T04:16:32;12.80;99.90
27544;DHT22;17996;51.056;3.656;2024-03-22T04:18:57;12.80;99.90
27544;DHT22;17996;51.056;3.656;2024-03-22T04:21:24;12.80;99.90
27544;DHT22;17996;51.056;3.656;2024-03-22T04:23:52;12.80;99.90
27544;DHT22;17996;51.056;3.656;2024-03-22T04:26:18;12.80;99.90
27544;DHT22;17996;51.056;3.656;2024-03-22T04:28:44;12.80;99.90
27544;DHT22;17996;51.056;3.656;2024-03-22T04:31:09;12.80;99.90
27544;DHT22;17996;51.056;3.656;2024-03-22T04:33:37;12.80;99.90
27544;DHT22;17996;51.056;3.656;2024-03-22T04:36:04;12.80;99.90
27544;DHT22;17996;51.056;3.656;2024-03-22T04:38:30;12.80;99.90
27544;DHT22;17996;51.056;3.656;2024-03-22T04:40:57;12.80;99.90
27544;DHT22;17996;51.056;3.656;2024-03-22T04:43:27;12.80;99.90
27544;DHT22;17996;51.056;3.656;2024-03-22T04:45:53;12.80;99.90
27544;DHT22;17996;51.056;3.656;2024-03-22T04:48:23;12.80;99.90
27544;DHT22;17996;51.056;3.656;2024-03-22T04:50:50;12.80;99.90
27544;DHT22;17996;51.056;3.656;2024-03-22T04:53:19;12.80;99.90
27544;DHT22;17996;51.056;3.656;2024-03-22T04:58:19;12.70;99.90
27544;DHT22;17996;51.056;3.656;2024-03-22T05:00:45;12.70;99.90
27544;DHT22;17996;51.056;3.656;2024-03-22T05:03:12;12.70;99.90
27544;DHT22;17996;51.056;3.656;2024-03-22T05:05:39;12.70;99.90
27544;DHT22;17996;51.056;3.656;2024-03-22T05:08:05;12.70;99.90
27544;DHT22;17996;51.056;3.656;2024-03-22T05:10:34;12.70;99.90
27544;DHT22;17996;51.056;3.656;2024-03-22T05:13:01;12.70;99.90
27544;DHT22;17996;51.056;3.656;2024-03-22T05:15:30;12.70;99.90
27544;DHT22;17996;51.056;3.656;2024-03-22T05:17:57;12.70;99.90
27544;DHT22;17996;51.056;3.656;2024-03-22T05:20:24;12.70;99.90
27544;DHT22;17996;51.056;3.656;2024-03-22T05:22:50;12.70;99.90
27544;DHT22;17996;51.056;3.656;2024-03-22T05:25:16;12.70;99.90
27544;DHT22;17996;51.056;3.656;2024-03-22T05:27:42;12.70;99.90
27544;DHT22;17996;51.056;3.656;2024-03-22T05:30:09;12.70;99.90
27544;DHT22;17996;51.056;3.656;2024-03-22T05:32:38;12.70;99.90
27544;DHT22;17996;51.056;3.656;2024-03-22T05:35:05;12.70;99.90
27544;DHT22;17996;51.056;3.656;2024-03-22T05:37:31;12.70;99.90
27544;DHT22;17996;51.056;3.656;2024-03-22T05:39:59;12.60;99.90
27544;DHT22;17996;51.056;3.656;2024-03-22T05:42:26;12.60;99.90
27544;DHT22;17996;51.056;3.656;2024-03-22T05:44:53;12.60;99.90
27544;DHT22;17996;51.056;3.656;2024-03-22T05:47:19;12.60;99.90
27544;DHT22;17996;51.056;3.656;2024-03-22T05:49:46;12.60;99.90
27544;DHT22;17996;51.056;3.656;2024-03-22T05:52:12;12.60;99.90
27544;DHT22;17996;51.056;3.656;2024-03-22T05:54:38;12.60;99.90
27544;DHT22;17996;51.056;3.656;2024-03-22T05:57:07;12.60;99.90
27544;DHT22;17996;51.056;3.656;2024-03-22T05:59:33;12.60;99.90
27544;DHT22;17996;51.056;3.656;2024-03-22T06:02:00;12.60;99.90
27544;DHT22;17996;51.056;3.656;2024-03-22T06:04:26;12.60;99.90
27544;DHT22;17996;51.056;3.656;2024-03-22T06:06:54;12.60;99.90
27544;DHT22;17996;51.056;3.656;2024-03-22T06:09:20;12.60;99.90
27544;DHT22;17996;51.056;3.656;2024-03-22T06:12:04;12.60;99.90
27544;DHT22;17996;51.056;3.656;2024-03-22T06:14:30;12.60;99.90
27544;DHT22;17996;51.056;3.656;2024-03-22T06:16:55;12.50;99.90
27544;DHT22;17996;51.056;3.656;2024-03-22T06:19:22;12.60;99.90
27544;DHT22;17996;51.056;3.656;2024-03-22T06:21:48;12.60;99.90
27544;DHT22;17996;51.056;3.656;2024-03-22T06:24:14;12.50;99.90
27544;DHT22;17996;51.056;3.656;2024-03-22T06:26:40;12.50;99.90
27544;DHT22;17996;51.056;3.656;2024-03-22T06:29:06;12.60;99.90
27544;DHT22;17996;51.056;3.656;2024-03-22T06:31:32;12.60;99.90
27544;DHT22;17996;51.056;3.656;2024-03-22T06:33:57;12.60;99.90
27544;DHT22;17996;51.056;3.656;2024-03-22T06:36:31;12.60;99.90
27544;DHT22;17996;51.056;3.656;2024-03-22T06:38:58;12.60;99.90
27544;DHT22;17996;51.056;3.656;2024-03-22T06:41:25;12.60;99.90
27544;DHT22;17996;51.056;3.656;2024-03-22T06:43:51;12.60;99.90
27544;DHT22;17996;51.056;3.656;2024-03-22T06:46:19;12.60;99.90
27544;DHT22;17996;51.056;3.656;2024-03-22T06:48:47;12.70;99.90
27544;DHT22;17996;51.056;3.656;2024-03-22T06:51:14;12.70;99.90
27544;DHT22;17996;51.056;3.656;2024-03-22T06:53:39;12.70;99.90
27544;DHT22;17996;51.056;3.656;2024-03-22T06:56:07;12.70;99.90
27544;DHT22;17996;51.056;3.656;2024-03-22T06:58:36;12.70;99.90
27544;DHT22;17996;51.056;3.656;2024-03-22T07:01:05;12.70;99.90
27544;DHT22;17996;51.056;3.656;2024-03-22T07:03:32;12.80;99.90
27544;DHT22;17996;51.056;3.656;2024-03-22T07:05:59;12.80;99.90
27544;DHT22;17996;51.056;3.656;2024-03-22T07:08:26;12.80;99.90
27544;DHT22;17996;51.056;3.656;2024-03-22T07:10:55;12.90;99.90
27544;DHT22;17996;51.056;3.656;2024-03-22T07:13:21;12.90;99.90
27544;DHT22;17996;51.056;3.656;2024-03-22T07:15:49;12.80;99.90
27544;DHT22;17996;51.056;3.656;2024-03-22T07:18:15;12.80;99.90
27544;DHT22;17996;51.056;3.656;2024-03-22T07:20:45;12.90;99.90
27544;DHT22;17996;51.056;3.656;2024-03-22T07:23:11;12.90;99.90
27544;DHT22;17996;51.056;3.656;2024-03-22T07:25:38;12.90;99.90
27544;DHT22;17996;51.056;3.656;2024-03-22T07:28:04;13.00;99.90
27544;DHT22;17996;51.056;3.656;2024-03-22T07:30:33;13.00;99.90
27544;DHT22;17996;51.056;3.656;2024-03-22T07:33:01;13.10;99.90
27544;DHT22;17996;51.056;3.656;2024-03-22T07:35:30;13.10;99.90
27544;DHT22;17996;51.056;3.656;2024-03-22T07:37:58;13.20;99.90
27544;DHT22;17996;51.056;3.656;2024-03-22T07:40:27;13.10;99.90
27544;DHT22;17996;51.056;3.656;2024-03-22T07:42:53;13.20;99.90
27544;DHT22;17996;51.056;3.656;2024-03-22T07:45:21;13.10;99.90
27544;DHT22;17996;51.056;3.656;2024-03-22T07:47:46;13.20;99.90
27544;DHT22;17996;51.056;3.656;2024-03-22T07:50:14;13.20;99.90
27544;DHT22;17996;51.056;3.656;2024-03-22T07:52:42;13.30;99.90
27544;DHT22;17996;51.056;3.656;2024-03-22T07:55:09;13.30;99.90
27544;DHT22;17996;51.056;3.656;2024-03-22T07:57:36;13.40;99.90
27544;DHT22;17996;51.056;3.656;2024-03-22T08:00:05;13.50;99.90
27544;DHT22;17996;51.056;3.656;2024-03-22T08:02:35;13.50;99.90
27544;DHT22;17996;51.056;3.656;2024-03-22T08:05:01;13.60;99.90
27544;DHT22;17996;51.056;3.656;2024-03-22T08:07:27;13.70;99.90
27544;DHT22;17996;51.056;3.656;2024-03-22T08:09:56;13.70;99.90
27544;DHT22;17996;51.056;3.656;2024-03-22T08:12:24;13.80;99.90
27544;DHT22;17996;51.056;3.656;2024-03-22T08:14:52;13.90;99.90
27544;DHT22;17996;51.056;3.656;2024-03-22T08:17:20;14.00;99.90
27544;DHT22;17996;51.056;3.656;2024-03-22T08:19:48;14.00;99.90
27544;DHT22;17996;51.056;3.656;2024-03-22T08:22:16;14.00;99.90
27544;DHT22;17996;51.056;3.656;2024-03-22T08:24:42;14.10;99.90
27544;DHT22;17996;51.056;3.656;2024-03-22T08:27:09;14.10;99.90
27544;DHT22;17996;51.056;3.656;2024-03-22T08:29:35;14.20;99.90
27544;DHT22;17996;51.056;3.656;2024-03-22T08:32:03;14.20;99.90
27544;DHT22;17996;51.056;3.656;2024-03-22T08:34:30;14.20;99.90
27544;DHT22;17996;51.056;3.656;2024-03-22T08:36:58;14.20;99.90
27544;DHT22;17996;51.056;3.656;2024-03-22T08:39:23;14.20;99.90
27544;DHT22;17996;51.056;3.656;2024-03-22T08:41:51;14.20;99.90
27544;DHT22;17996;51.056;3.656;2024-03-22T08:44:17;14.20;99.90
27544;DHT22;17996;51.056;3.656;2024-03-22T08:46:44;14.10;99.90
27544;DHT22;17996;51.056;3.656;2024-03-22T08:49:12;14.10;99.90
27544;DHT22;17996;51.056;3.656;2024-03-22T08:51:39;14.00;99.90
27544;DHT22;17996;51.056;3.656;2024-03-22T08:54:06;14.00;99.90
27544;DHT22;17996;51.056;3.656;2024-03-22T08:56:31;14.00;99.90
27544;DHT22;17996;51.056;3.656;2024-03-22T08:58:59;14.00;99.90
27544;DHT22;17996;51.056;3.656;2024-03-22T09:01:26;14.00;99.90
27544;DHT22;17996;51.056;3.656;2024-03-22T09:03:52;14.00;99.90
27544;DHT22;17996;51.056;3.656;2024-03-22T09:06:19;14.00;99.90
27544;DHT22;17996;51.056;3.656;2024-03-22T09:08:45;14.00;99.90
27544;DHT22;17996;51.056;3.656;2024-03-22T09:11:11;13.90;99.90
27544;DHT22;17996;51.056;3.656;2024-03-22T09:13:39;13.90;99.90
27544;DHT22;17996;51.056;3.656;2024-03-22T09:16:05;13.90;99.90
27544;DHT22;17996;51.056;3.656;2024-03-22T09:18:32;13.90;99.90
27544;DHT22;17996;51.056;3.656;2024-03-22T09:20:58;13.80;99.90
27544;DHT22;17996;51.056;3.656;2024-03-22T09:23:24;13.90;99.90
27544;DHT22;17996;51.056;3.656;2024-03-22T09:25:53;13.90;99.90
27544;DHT22;17996;51.056;3.656;2024-03-22T09:28:21;13.90;99.90
27544;DHT22;17996;51.056;3.656;2024-03-22T09:30:48;14.00;99.90
27544;DHT22;17996;51.056;3.656;2024-03-22T09:33:13;14.00;99.90
27544;DHT22;17996;51.056;3.656;2024-03-22T09:35:39;14.00;99.90
27544;DHT22;17996;51.056;3.656;2024-03-22T09:38:05;14.10;99.90
27544;DHT22;17996;51.056;3.656;2024-03-22T09:40:31;14.20;99.90
27544;DHT22;17996;51.056;3.656;2024-03-22T09:43:02;14.30;99.90
27544;DHT22;17996;51.056;3.656;2024-03-22T09:45:32;14.30;99.90
27544;DHT22;17996;51.056;3.656;2024-03-22T09:47:58;14.40;99.90
27544;DHT22;17996;51.056;3.656;2024-03-22T09:50:26;14.50;99.90
27544;DHT22;17996;51.056;3.656;2024-03-22T09:52:53;14.40;99.90
27544;DHT22;17996;51.056;3.656;2024-03-22T09:55:22;14.50;99.90
27544;DHT22;17996;51.056;3.656;2024-03-22T09:57:49;14.50;99.90
27544;DHT22;17996;51.056;3.656;2024-03-22T10:00:20;14.50;99.90
27544;DHT22;17996;51.056;3.656;2024-03-22T10:02:51;14.50;99.90
27544;DHT22;17996;51.056;3.656;2024-03-22T10:05:17;14.40;99.90
27544;DHT22;17996;51.056;3.656;2024-03-22T10:07:44;14.40;99.90
27544;DHT22;17996;51.056;3.656;2024-03-22T10:10:11;14.30;99.90
27544;DHT22;17996;51.056;3.656;2024-03-22T10:12:39;14.20;99.90
27544;DHT22;17996;51.056;3.656;2024-03-22T10:15:05;14.20;99.90
27544;DHT22;17996;51.056;3.656;2024-03-22T10:17:34;14.20;99.90
27544;DHT22;17996;51.056;3.656;2024-03-22T10:20:00;14.10;99.90
27544;DHT22;17996;51.056;3.656;2024-03-22T10:22:28;14.10;99.90
27544;DHT22;17996;51.056;3.656;2024-03-22T10:24:54;14.00;99.90
27544;DHT22;17996;51.056;3.656;2024-03-22T10:27:21;14.00;99.90
27544;DHT22;17996;51.056;3.656;2024-03-22T10:29:47;13.90;99.90
27544;DHT22;17996;51.056;3.656;2024-03-22T10:32:15;13.90;99.90
27544;DHT22;17996;51.056;3.656;2024-03-22T10:34:42;13.90;99.90
27544;DHT22;17996;51.056;3.656;2024-03-22T10:37:14;13.80;99.90
27544;DHT22;17996;51.056;3.656;2024-03-22T10:39:42;13.80;99.90
27544;DHT22;17996;51.056;3.656;2024-03-22T10:42:08;13.80;99.90
27544;DHT22;17996;51.056;3.656;2024-03-22T10:44:35;13.80;99.90
27544;DHT22;17996;51.056;3.656;2024-03-22T10:47:04;13.80;99.90
27544;DHT22;17996;51.056;3.656;2024-03-22T10:49:36;13.90;99.90
27544;DHT22;17996;51.056;3.656;2024-03-22T10:52:03;13.90;99.90
27544;DHT22;17996;51.056;3.656;2024-03-22T10:54:40;13.90;99.90
27544;DHT22;17996;51.056;3.656;2024-03-22T10:57:12;13.90;99.90
27544;DHT22;17996;51.056;3.656;2024-03-22T10:59:41;13.80;99.90
27544;DHT22;17996;51.056;3.656;2024-03-22T11:02:10;13.90;99.90
27544;DHT22;17996;51.056;3.656;2024-03-22T11:04:36;13.90;99.90
27544;DHT22;17996;51.056;3.656;2024-03-22T11:07:02;13.90;99.90
27544;DHT22;17996;51.056;3.656;2024-03-22T11:09:29;14.00;99.90
27544;DHT22;17996;51.056;3.656;2024-03-22T11:11:56;14.00;99.90
27544;DHT22;17996;51.056;3.656;2024-03-22T11:14:26;13.90;99.90
27544;DHT22;17996;51.056;3.656;2024-03-22T11:16:53;13.90;99.90
27544;DHT22;17996;51.056;3.656;2024-03-22T11:19:19;13.90;99.90
27544;DHT22;17996;51.056;3.656;2024-03-22T11:21:46;13.90;99.90
27544;DHT22;17996;51.056;3.656;2024-03-22T11:24:12;14.00;99.90
27544;DHT22;17996;51.056;3.656;2024-03-22T11:26:38;14.00;99.90
27544;DHT22;17996;51.056;3.656;2024-03-22T11:29:04;14.10;99.90
27544;DHT22;17996;51.056;3.656;2024-03-22T11:31:30;14.10;99.90
27544;DHT22;17996;51.056;3.656;2024-03-22T11:33:56;14.20;99.90
27544;DHT22;17996;51.056;3.656;2024-03-22T11:36:23;14.20;99.90
27544;DHT22;17996;51.056;3.656;2024-03-22T11:38:49;14.20;99.90
27544;DHT22;17996;51.056;3.656;2024-03-22T11:41:26;14.20;99.90
27544;DHT22;17996;51.056;3.656;2024-03-22T11:43:53;14.20;99.90
27544;DHT22;17996;51.056;3.656;2024-03-22T11:46:20;14.10;99.90
27544;DHT22;17996;51.056;3.656;2024-03-22T11:48:53;14.10;99.90
27544;DHT22;17996;51.056;3.656;2024-03-22T11:51:20;14.10;99.90
27544;DHT22;17996;51.056;3.656;2024-03-22T11:53:54;14.10;99.90
27544;DHT22;17996;51.056;3.656;2024-03-22T11:56:22;14.10;99.90
27544;DHT22;17996;51.056;3.656;2024-03-22T11:58:48;14.00;99.90
27544;DHT22;17996;51.056;3.656;2024-03-22T12:01:17;14.00;99.90
27544;DHT22;17996;51.056;3.656;2024-03-22T12:03:47;14.00;99.90
27544;DHT22;17996;51.056;3.656;2024-03-22T12:06:13;13.90;99.90
27544;DHT22;17996;51.056;3.656;2024-03-22T12:08:40;13.90;99.90
27544;DHT22;17996;51.056;3.656;2024-03-22T12:11:11;13.80;99.90
27544;DHT22;17996;51.056;3.656;2024-03-22T12:13:37;13.80;99.90
27544;DHT22;17996;51.056;3.656;2024-03-22T12:16:04;13.70;99.90
27544;DHT22;17996;51.056;3.656;2024-03-22T12:18:31;13.80;99.90
27544;DHT22;17996;51.056;3.656;2024-03-22T12:20:57;13.70;99.90
27544;DHT22;17996;51.056;3.656;2024-03-22T12:23:25;13.80;99.90
27544;DHT22;17996;51.056;3.656;2024-03-22T12:25:52;13.80;99.90
27544;DHT22;17996;51.056;3.656;2024-03-22T12:28:22;13.80;99.90
27544;DHT22;17996;51.056;3.656;2024-03-22T12:30:49;13.80;99.90
27544;DHT22;17996;51.056;3.656;2024-03-22T12:33:17;13.70;99.90
27544;DHT22;17996;51.056;3.656;2024-03-22T12:35:43;13.70;99.90
27544;DHT22;17996;51.056;3.656;2024-03-22T12:38:09;13.80;99.90
27544;DHT22;17996;51.056;3.656;2024-03-22T12:40:38;13.80;99.90
27544;DHT22;17996;51.056;3.656;2024-03-22T12:43:04;13.80;99.90
27544;DHT22;17996;51.056;3.656;2024-03-22T12:45:31;13.80;99.90
27544;DHT22;17996;51.056;3.656;2024-03-22T12:47:58;13.80;99.90
27544;DHT22;17996;51.056;3.656;2024-03-22T12:50:24;13.80;99.90
27544;DHT22;17996;51.056;3.656;2024-03-22T12:52:51;13.80;99.90
27544;DHT22;17996;51.056;3.656;2024-03-22T12:55:17;13.80;99.90
27544;DHT22;17996;51.056;3.656;2024-03-22T12:57:43;13.70;99.90
27544;DHT22;17996;51.056;3.656;2024-03-22T13:00:12;13.70;99.90
27544;DHT22;17996;51.056;3.656;2024-03-22T13:02:41;13.60;99.90
27544;DHT22;17996;51.056;3.656;2024-03-22T13:05:07;13.60;99.90
27544;DHT22;17996;51.056;3.656;2024-03-22T13:07:34;13.60;99.90
27544;DHT22;17996;51.056;3.656;2024-03-22T13:10:00;13.40;99.90
27544;DHT22;17996;51.056;3.656;2024-03-22T13:12:27;13.40;99.90
27544;DHT22;17996;51.056;3.656;2024-03-22T13:14:54;13.30;99.90
27544;DHT22;17996;51.056;3.656;2024-03-22T13:17:20;13.30;99.90
27544;DHT22;17996;51.056;3.656;2024-03-22T13:19:46;13.30;99.90
27544;DHT22;17996;51.056;3.656;2024-03-22T13:22:12;13.40;99.90
27544;DHT22;17996;51.056;3.656;2024-03-22T13:24:40;13.30;99.90
27544;DHT22;17996;51.056;3.656;2024-03-22T13:27:05;13.40;99.90
27544;DHT22;17996;51.056;3.656;2024-03-22T13:29:32;13.40;99.90
27544;DHT22;17996;51.056;3.656;2024-03-22T13:31:57;13.40;99.90
27544;DHT22;17996;51.056;3.656;2024-03-22T13:34:23;13.40;99.90
27544;DHT22;17996;51.056;3.656;2024-03-22T13:36:49;13.40;99.90
27544;DHT22;17996;51.056;3.656;2024-03-22T13:39:14;13.40;99.90
27544;DHT22;17996;51.056;3.656;2024-03-22T13:41:41;13.40;99.90
27544;DHT22;17996;51.056;3.656;2024-03-22T13:44:07;13.40;99.90
27544;DHT22;17996;51.056;3.656;2024-03-22T13:46:34;13.40;99.90
27544;DHT22;17996;51.056;3.656;2024-03-22T13:49:13;13.30;99.90
27544;DHT22;17996;51.056;3.656;2024-03-22T13:51:41;13.30;99.90
27544;DHT22;17996;51.056;3.656;2024-03-22T13:54:07;13.30;99.90
27544;DHT22;17996;51.056;3.656;2024-03-22T13:56:33;13.30;99.90
27544;DHT22;17996;51.056;3.656;2024-03-22T13:58:58;13.30;99.90
27544;DHT22;17996;51.056;3.656;2024-03-22T14:01:24;13.40;99.90
27544;DHT22;17996;51.056;3.656;2024-03-22T14:03:50;13.40;99.90
27544;DHT22;17996;51.056;3.656;2024-03-22T14:06:16;13.40;99.90
27544;DHT22;17996;51.056;3.656;2024-03-22T14:08:42;13.40;99.90
27544;DHT22;17996;51.056;3.656;2024-03-22T14:11:08;13.50;99.90
27544;DHT22;17996;51.056;3.656;2024-03-22T14:13:33;13.50;99.90
27544;DHT22;17996;51.056;3.656;2024-03-22T14:15:59;13.50;99.90
27544;DHT22;17996;51.056;3.656;2024-03-22T14:18:25;13.50;99.90
27544;DHT22;17996;51.056;3.656;2024-03-22T14:20:50;13.50;99.90
27544;DHT22;17996;51.056;3.656;2024-03-22T14:23:16;13.50;99.90
27544;DHT22;17996;51.056;3.656;2024-03-22T14:25:42;13.50;99.90
27544;DHT22;17996;51.056;3.656;2024-03-22T14:28:12;13.50;99.90
27544;DHT22;17996;51.056;3.656;2024-03-22T14:30:37;13.50;99.90
27544;DHT22;17996;51.056;3.656;2024-03-22T14:33:04;13.50;99.90
27544;DHT22;17996;51.056;3.656;2024-03-22T14:35:30;13.50;99.90
27544;DHT22;17996;51.056;3.656;2024-03-22T14:37:56;13.50;99.90
27544;DHT22;17996;51.056;3.656;2024-03-22T14:40:21;13.40;99.90
27544;DHT22;17996;51.056;3.656;2024-03-22T14:42:47;13.40;99.90
27544;DHT22;17996;51.056;3.656;2024-03-22T14:45:13;13.40;99.90
27544;DHT22;17996;51.056;3.656;2024-03-22T14:47:45;13.40;99.90
27544;DHT22;17996;51.056;3.656;2024-03-22T14:50:11;13.30;99.90
27544;DHT22;17996;51.056;3.656;2024-03-22T14:52:37;13.40;99.90
27544;DHT22;17996;51.056;3.656;2024-03-22T14:55:03;13.30;99.90
27544;DHT22;17996;51.056;3.656;2024-03-22T14:57:30;13.30;99.90
27544;DHT22;17996;51.056;3.656;2024-03-22T14:59:56;13.30;99.90
27544;DHT22;17996;51.056;3.656;2024-03-22T15:02:22;13.30;99.90
27544;DHT22;17996;51.056;3.656;2024-03-22T15:04:47;13.30;99.90
27544;DHT22;17996;51.056;3.656;2024-03-22T15:07:13;13.30;99.90
27544;DHT22;17996;51.056;3.656;2024-03-22T15:09:41;13.30;99.90
27544;DHT22;17996;51.056;3.656;2024-03-22T15:12:07;13.40;99.90
27544;DHT22;17996;51.056;3.656;2024-03-22T15:14:35;13.40;99.90
27544;DHT22;17996;51.056;3.656;2024-03-22T15:17:00;13.30;99.90
27544;DHT22;17996;51.056;3.656;2024-03-22T15:19:26;13.30;99.90
27544;DHT22;17996;51.056;3.656;2024-03-22T15:21:52;13.30;99.90
27544;DHT22;17996;51.056;3.656;2024-03-22T15:24:18;13.20;99.90
27544;DHT22;17996;51.056;3.656;2024-03-22T15:26:45;13.20;99.90
27544;DHT22;17996;51.056;3.656;2024-03-22T15:29:11;13.20;99.90
27544;DHT22;17996;51.056;3.656;2024-03-22T15:31:36;13.10;99.90